createdAt,value
2018-11-10T00:00:05.150Z,101667.78
2018-11-10T00:02:34.028Z,101668.52
2018-11-10T00:05:02.946Z,101668.80
2018-11-10T00:07:33.276Z,101664.62
2018-11-10T00:10:02.199Z,101662.86
2018-11-10T00:12:31.129Z,101660.42
2018-11-10T00:15:00.031Z,101665.69
2018-11-10T00:17:28.846Z,101664.55
2018-11-10T00:19:57.708Z,101671.73
2018-11-10T00:22:26.710Z,101661.56
2018-11-10T00:24:55.627Z,101660.65
2018-11-10T00:27:24.466Z,101665.23
2018-11-10T00:29:53.425Z,101664.84
2018-11-10T00:32:22.282Z,101663.02
2018-11-10T00:34:51.222Z,101626.19
2018-11-10T00:37:20.191Z,101665.62
2018-11-10T00:39:49.054Z,101661.10
2018-11-10T00:42:18.032Z,101655.17
2018-11-10T00:44:46.951Z,101652.68
2018-11-10T00:47:15.825Z,101649.63
2018-11-10T00:49:44.822Z,101652.45
2018-11-10T00:52:13.876Z,101652.91
2018-11-10T00:54:42.889Z,101651.44
2018-11-10T00:57:13.525Z,101650.24
2018-11-10T00:59:42.492Z,101649.95
2018-11-10T01:02:11.475Z,101652.00
2018-11-10T01:04:40.431Z,101652.55
2018-11-10T01:07:09.389Z,101651.47
2018-11-10T01:09:38.240Z,101655.38
2018-11-10T01:12:07.431Z,101652.00
2018-11-10T01:14:36.725Z,101648.88
2018-11-10T01:17:05.910Z,101650.92
2018-11-10T01:19:34.875Z,101652.69
2018-11-10T01:22:03.858Z,101646.18
2018-11-10T01:24:32.801Z,101653.47
2018-11-10T01:27:01.688Z,101647.71
2018-11-10T01:29:30.603Z,101642.90
2018-11-10T01:31:59.470Z,101641.99
2018-11-10T01:34:28.385Z,101640.13
2018-11-10T01:36:57.250Z,101640.91
2018-11-10T01:39:26.067Z,101635.54
2018-11-10T01:41:55.131Z,101631.72
2018-11-10T01:44:24.084Z,101628.48
2018-11-10T01:46:52.927Z,101633.39
2018-11-10T01:49:21.847Z,101627.74
2018-11-10T01:51:50.944Z,101638.22
2018-11-10T01:54:20.596Z,101627.23
2018-11-10T01:56:49.492Z,101629.71
2018-11-10T01:59:18.447Z,101623.04
2018-11-10T02:01:47.317Z,101618.91
2018-11-10T02:04:16.194Z,101614.71
2018-11-10T02:06:45.230Z,101614.16
2018-11-10T02:09:14.201Z,101625.78
2018-11-10T02:11:43.117Z,101618.22
2018-11-10T02:14:12.096Z,101616.43
2018-11-10T02:16:41.000Z,101615.44
2018-11-10T02:19:09.901Z,101611.47
2018-11-10T02:21:38.810Z,101613.50
2018-11-10T02:24:07.757Z,101618.44
2018-11-10T02:26:36.751Z,101610.83
2018-11-10T02:29:05.718Z,101607.84
2018-11-10T02:31:34.664Z,101608.23
2018-11-10T02:34:03.607Z,101614.18
2018-11-10T02:36:32.518Z,101610.52
2018-11-10T02:39:01.401Z,101610.06
2018-11-10T02:41:30.379Z,101608.12
2018-11-10T02:43:59.270Z,101613.36
2018-11-10T02:46:28.149Z,101618.78
2018-11-10T02:48:57.118Z,101617.31
2018-11-10T02:51:26.011Z,101611.50
2018-11-10T02:53:54.878Z,101619.58
2018-11-10T02:56:23.793Z,101611.05
2018-11-10T02:58:52.731Z,101614.17
2018-11-10T03:01:21.658Z,101616.59
2018-11-10T03:03:50.662Z,101614.28
2018-11-10T03:06:19.491Z,101619.20
2018-11-10T03:08:48.418Z,101620.23
2018-11-10T03:11:17.296Z,101622.35
2018-11-10T03:13:46.118Z,101619.98
2018-11-10T03:16:15.064Z,101616.73
2018-11-10T03:18:43.952Z,101613.22
2018-11-10T03:21:12.825Z,101618.98
2018-11-10T03:23:41.754Z,101613.36
2018-11-10T03:26:10.815Z,101612.41
2018-11-10T03:28:39.751Z,101611.50
2018-11-10T03:31:08.675Z,101614.95
2018-11-10T03:33:37.571Z,101609.39
2018-11-10T03:36:06.510Z,101603.27
2018-11-10T03:38:35.405Z,101613.84
2018-11-10T03:41:04.380Z,101610.30
2018-11-10T03:43:33.399Z,101612.58
2018-11-10T03:46:02.251Z,101609.13
2018-11-10T03:48:31.291Z,101615.48
2018-11-10T03:51:00.205Z,101615.20
2018-11-10T03:53:29.090Z,101617.72
2018-11-10T03:55:58.036Z,101605.80
2018-11-10T03:58:27.105Z,101615.52
2018-11-10T04:00:56.014Z,101612.66
2018-11-10T04:03:24.955Z,101611.33
2018-11-10T04:05:53.790Z,101600.69
2018-11-10T04:08:22.743Z,101609.05
2018-11-10T04:10:51.653Z,101604.25
2018-11-10T04:13:20.602Z,101603.27
2018-11-10T04:15:49.526Z,101606.35
2018-11-10T04:18:18.465Z,101607.31
2018-11-10T04:20:47.332Z,101615.11
2018-11-10T04:23:16.219Z,101611.50
2018-11-10T04:25:45.111Z,101615.70
2018-11-10T04:28:14.076Z,101617.73
2018-11-10T04:30:43.023Z,101615.98
2018-11-10T04:33:11.998Z,101620.85
2018-11-10T04:35:40.867Z,101619.44
2018-11-10T04:38:09.766Z,101623.23
2018-11-10T04:40:38.709Z,101621.86
2018-11-10T04:43:07.626Z,101627.16
2018-11-10T04:45:36.564Z,101626.20
2018-11-10T04:48:05.498Z,101626.28
2018-11-10T04:50:34.470Z,101631.94
2018-11-10T04:53:03.299Z,101630.33
2018-11-10T04:55:32.188Z,101629.79
2018-11-10T04:58:01.062Z,101627.11
2018-11-10T05:00:29.934Z,101634.50
2018-11-10T05:02:58.814Z,101638.91
2018-11-10T05:05:27.659Z,101635.00
2018-11-10T05:07:56.572Z,101632.55
2018-11-10T05:10:25.418Z,101632.81
2018-11-10T05:12:54.338Z,101644.58
2018-11-10T05:15:23.294Z,101635.84
2018-11-10T05:17:52.138Z,101635.32
2018-11-10T05:20:21.097Z,101636.91
2018-11-10T05:22:50.048Z,101641.11
2018-11-10T05:25:18.912Z,101639.80
2018-11-10T05:27:47.853Z,101639.02
2018-11-10T05:30:16.817Z,101642.27
2018-11-10T05:32:45.634Z,101648.14
2018-11-10T05:35:14.543Z,101654.13
2018-11-10T05:37:43.507Z,101655.95
2018-11-10T05:40:12.787Z,101654.76
2018-11-10T05:42:41.922Z,101664.30
2018-11-10T05:45:12.113Z,101659.48
2018-11-10T05:47:41.016Z,101650.15
2018-11-10T05:50:10.282Z,101653.45
2018-11-10T05:52:39.130Z,101658.20
2018-11-10T05:55:08.753Z,101659.48
2018-11-10T05:57:43.178Z,101667.85
2018-11-10T06:00:13.526Z,101672.92
2018-11-10T06:02:43.005Z,101671.06
2018-11-10T06:05:12.556Z,101676.78
2018-11-10T06:07:41.470Z,101667.48
2018-11-10T06:10:11.680Z,101671.82
2018-11-10T06:12:40.469Z,101677.73
2018-11-10T06:15:10.123Z,101678.64
2018-11-10T06:17:39.116Z,101673.52
2018-11-10T06:20:09.865Z,101675.98
2018-11-10T06:22:38.770Z,101673.56
2018-11-10T06:25:08.534Z,101666.05
2018-11-10T06:27:37.406Z,101664.17
2018-11-10T06:30:08.278Z,101670.58
2018-11-10T06:32:37.689Z,101671.86
2018-11-10T06:35:06.744Z,101670.44
2018-11-10T06:37:35.708Z,101671.06
2018-11-10T06:40:05.161Z,101675.91
2018-11-10T06:42:34.022Z,101676.16
2018-11-10T06:45:03.325Z,101675.06
2018-11-10T06:47:32.275Z,101670.24
2018-11-10T06:50:01.215Z,101675.59
2018-11-10T06:52:30.102Z,101674.05
2018-11-10T06:54:58.963Z,101676.59
2018-11-10T06:57:27.842Z,101673.78
2018-11-10T06:59:56.694Z,101672.47
2018-11-10T07:02:25.674Z,101667.14
2018-11-10T07:04:54.528Z,101667.33
2018-11-10T07:07:23.518Z,101668.64
2018-11-10T07:09:52.394Z,101669.03
2018-11-10T07:12:21.310Z,101667.59
2018-11-10T07:14:50.162Z,101662.68
2018-11-10T07:17:19.094Z,101664.95
2018-11-10T07:19:47.958Z,101665.24
2018-11-10T07:22:16.846Z,101664.28
2018-11-10T07:24:45.895Z,101665.73
2018-11-10T07:27:14.735Z,101669.23
2018-11-10T07:29:43.589Z,101666.80
2018-11-10T07:32:12.542Z,101662.49
2018-11-10T07:34:41.443Z,101662.42
2018-11-10T07:37:10.408Z,101663.28
2018-11-10T07:39:39.519Z,101671.30
2018-11-10T07:42:08.555Z,101669.48
2018-11-10T07:44:37.499Z,101670.66
2018-11-10T07:47:06.791Z,101674.09
2018-11-10T07:49:37.020Z,101670.47
2018-11-10T07:52:06.314Z,101661.57
2018-11-10T07:54:35.249Z,101661.82
2018-11-10T07:57:04.180Z,101664.95
2018-11-10T07:59:33.044Z,101670.27
2018-11-10T08:02:01.945Z,101667.94
2018-11-10T08:04:31.835Z,101665.58
2018-11-10T08:07:00.802Z,101664.03
2018-11-10T08:09:29.663Z,101657.33
2018-11-10T08:12:00.071Z,101664.13
2018-11-10T08:14:28.797Z,101661.81
2018-11-10T08:16:57.690Z,101661.34
2018-11-10T08:19:26.605Z,101661.94
2018-11-10T08:21:55.526Z,101657.88
2018-11-10T08:24:24.471Z,101663.19
2018-11-10T08:26:53.340Z,101659.30
2018-11-10T08:29:22.303Z,101658.78
2018-11-10T08:31:52.679Z,101653.96
2018-11-10T08:34:21.522Z,101648.32
2018-11-10T08:36:50.413Z,101651.50
2018-11-10T08:39:19.442Z,101653.09
2018-11-10T08:41:48.419Z,101651.19
2018-11-10T08:44:17.404Z,101656.02
2018-11-10T08:46:46.625Z,101655.64
2018-11-10T08:49:16.068Z,101656.67
2018-11-10T08:51:47.656Z,101659.14
2018-11-10T08:54:16.616Z,101654.21
2018-11-10T08:56:45.542Z,101657.88
2018-11-10T08:59:14.481Z,101655.38
2018-11-10T09:01:43.506Z,101656.59
2018-11-10T09:04:12.355Z,101653.73
2018-11-10T09:06:41.323Z,101655.79
2018-11-10T09:09:11.311Z,101653.89
2018-11-10T09:11:40.204Z,101653.00
2018-11-10T09:14:09.404Z,101655.53
2018-11-10T09:16:38.327Z,101651.95
2018-11-10T09:19:07.308Z,101654.89
2018-11-10T09:21:36.343Z,101652.89
2018-11-10T09:24:05.590Z,101652.95
2018-11-10T09:26:34.532Z,101651.38
2018-11-10T09:29:03.416Z,101645.95
2018-11-10T09:31:32.264Z,101638.10
2018-11-10T09:34:01.181Z,101636.48
2018-11-10T09:36:30.242Z,101640.03
2018-11-10T09:38:59.087Z,101633.48
2018-11-10T09:41:28.107Z,101631.53
2018-11-10T09:43:57.002Z,101624.05
2018-11-10T09:46:26.068Z,101629.02
2018-11-10T09:48:54.938Z,101623.08
2018-11-10T09:51:23.893Z,101616.36
2018-11-10T09:53:52.917Z,101620.06
2018-11-10T09:56:22.040Z,101612.69
2018-11-10T09:58:50.932Z,101619.22
2018-11-10T10:01:20.067Z,101613.91
2018-11-10T10:03:51.296Z,101606.03
2018-11-10T10:06:20.315Z,101599.67
2018-11-10T10:08:49.267Z,101605.60
2018-11-10T10:11:18.224Z,101601.42
2018-11-10T10:13:47.155Z,101598.48
2018-11-10T10:16:16.437Z,101598.94
2018-11-10T10:18:45.276Z,101594.09
2018-11-10T10:21:14.157Z,101593.70
2018-11-10T10:23:43.079Z,101590.47
2018-11-10T10:26:12.007Z,101589.64
2018-11-10T10:28:41.200Z,101586.83
2018-11-10T10:31:10.099Z,101585.01
2018-11-10T10:33:39.025Z,101587.69
2018-11-10T10:36:07.972Z,101588.67
2018-11-10T10:38:37.247Z,101590.27
2018-11-10T10:41:06.540Z,101587.33
2018-11-10T10:43:35.462Z,101584.11
2018-11-10T10:46:04.585Z,101585.13
2018-11-10T10:48:33.651Z,101580.70
2018-11-10T10:51:02.619Z,101582.13
2018-11-10T10:53:31.496Z,101574.08
2018-11-10T10:56:01.940Z,101578.90
2018-11-10T10:58:30.942Z,101579.88
2018-11-10T11:01:04.871Z,101575.86
2018-11-10T11:03:38.923Z,101579.60
2018-11-10T11:06:07.865Z,101571.14
2018-11-10T11:08:36.751Z,101568.83
2018-11-10T11:11:05.886Z,101571.08
2018-11-10T11:13:34.774Z,101566.30
2018-11-10T11:16:03.747Z,101568.23
2018-11-10T11:18:32.709Z,101566.22
2018-11-10T11:21:01.584Z,101564.81
2018-11-10T11:23:30.879Z,101563.04
2018-11-10T11:25:59.834Z,101561.35
2018-11-10T11:28:28.721Z,101568.52
2018-11-10T11:30:57.734Z,101565.89
2018-11-10T11:33:26.731Z,101573.05
2018-11-10T11:35:55.687Z,101566.69
2018-11-10T11:38:24.648Z,101568.38
2018-11-10T11:40:53.570Z,101564.07
2018-11-10T11:43:22.527Z,101565.00
2018-11-10T11:45:52.608Z,101557.18
2018-11-10T11:48:21.574Z,101565.61
2018-11-10T11:50:50.546Z,101558.26
2018-11-10T11:53:20.806Z,101560.14
2018-11-10T11:55:49.692Z,101560.00
2018-11-10T11:58:18.674Z,101558.69
2018-11-10T12:00:47.479Z,101556.84
2018-11-10T12:03:16.435Z,101554.27
2018-11-10T12:05:45.299Z,101556.61
2018-11-10T12:08:14.261Z,101554.51
2018-11-10T12:10:43.113Z,101552.07
2018-11-10T12:13:12.043Z,101552.55
2018-11-10T12:15:40.987Z,101550.25
2018-11-10T12:18:09.895Z,101548.56
2018-11-10T12:20:38.824Z,101554.52
2018-11-10T12:23:09.169Z,101544.53
2018-11-10T12:25:38.052Z,101547.87
2018-11-10T12:28:06.944Z,101541.73
2018-11-10T12:30:35.923Z,101544.27
2018-11-10T12:33:04.806Z,101540.19
2018-11-10T12:35:33.709Z,101535.27
2018-11-10T12:38:04.127Z,101536.86
2018-11-10T12:40:33.064Z,101539.78
2018-11-10T12:43:01.978Z,101539.26
2018-11-10T12:45:32.111Z,101538.98
2018-11-10T12:48:01.052Z,101539.07
2018-11-10T12:50:29.971Z,101540.23
2018-11-10T12:52:58.939Z,101536.15
2018-11-10T12:55:27.874Z,101540.66
2018-11-10T12:57:56.879Z,101536.67
2018-11-10T13:00:27.282Z,101543.97
2018-11-10T13:02:56.180Z,101537.15
2018-11-10T13:05:25.070Z,101540.14
2018-11-10T13:07:54.085Z,101539.92
2018-11-10T13:10:23.026Z,101538.60
2018-11-10T13:12:52.022Z,101535.82
2018-11-10T13:15:22.126Z,101534.66
2018-11-10T13:17:51.059Z,101535.89
2018-11-10T13:20:19.959Z,101530.41
2018-11-10T13:22:48.913Z,101523.57
2018-11-10T13:25:17.847Z,101522.04
2018-11-10T13:27:46.743Z,101523.25
2018-11-10T13:30:16.219Z,101524.34
2018-11-10T13:32:45.135Z,101518.73
2018-11-10T13:35:13.992Z,101522.61
2018-11-10T13:37:42.930Z,101518.53
2018-11-10T13:40:12.196Z,101521.49
2018-11-10T13:42:41.076Z,101521.09
2018-11-10T13:45:11.533Z,101521.12
2018-11-10T13:47:40.487Z,101529.05
2018-11-10T13:50:10.751Z,101524.38
2018-11-10T13:52:40.934Z,101518.15
2018-11-10T13:55:09.635Z,101524.40
2018-11-10T13:57:38.851Z,101527.66
2018-11-10T14:00:11.936Z,101530.42
2018-11-10T14:02:40.871Z,101525.20
2018-11-10T14:05:09.828Z,101533.86
2018-11-10T14:07:40.068Z,101529.56
2018-11-10T14:10:10.670Z,101532.96
2018-11-10T14:12:40.103Z,101528.55
2018-11-10T14:15:10.555Z,101529.09
2018-11-10T14:17:39.894Z,101523.44
2018-11-10T14:20:11.261Z,101523.00
2018-11-10T14:22:40.115Z,101526.23
2018-11-10T14:25:12.458Z,101529.83
2018-11-10T14:27:42.147Z,101524.69
2018-11-10T14:30:13.128Z,101529.48
2018-11-10T14:32:42.630Z,101522.16
2018-11-10T14:35:12.100Z,101533.17
2018-11-10T14:37:41.135Z,101532.37
2018-11-10T14:40:12.392Z,101539.72
2018-11-10T14:42:42.130Z,101537.67
2018-11-10T14:45:12.834Z,101530.53
2018-11-10T14:47:42.339Z,101548.50
2018-11-10T14:50:12.138Z,101546.23
2018-11-10T14:52:41.273Z,101544.38
2018-11-10T14:55:10.968Z,101548.77
2018-11-10T14:57:39.962Z,101555.80
2018-11-10T15:00:17.483Z,101556.30
2018-11-10T15:02:46.432Z,101558.33
2018-11-10T15:05:15.382Z,101557.85
2018-11-10T15:07:44.908Z,101564.59
2018-11-10T15:10:15.135Z,101558.92
2018-11-10T15:12:44.722Z,101566.11
2018-11-10T15:15:14.876Z,101563.77
2018-11-10T15:17:44.025Z,101567.20
2018-11-10T15:20:15.146Z,101567.58
2018-11-10T15:22:44.101Z,101563.47
2018-11-10T15:25:14.437Z,101570.94
2018-11-10T15:27:43.294Z,101567.48
2018-11-10T15:30:15.246Z,101572.80
2018-11-10T15:32:45.003Z,101570.39
2018-11-10T15:35:15.097Z,101567.97
2018-11-10T15:37:45.093Z,101568.59
2018-11-10T15:40:17.462Z,101572.51
2018-11-10T15:42:46.511Z,101570.09
2018-11-10T15:45:17.698Z,101570.56
2018-11-10T15:47:46.754Z,101572.53
2018-11-10T15:50:16.845Z,101571.69
2018-11-10T15:52:45.752Z,101575.15
2018-11-10T15:55:16.161Z,101575.23
2018-11-10T15:57:45.166Z,101576.61
2018-11-10T16:00:18.391Z,101577.19
2018-11-10T16:02:47.371Z,101582.02
2018-11-10T16:05:17.494Z,101583.22
2018-11-10T16:07:46.459Z,101586.86
2018-11-10T16:10:15.409Z,101579.69
2018-11-10T16:12:44.346Z,101590.19
2018-11-10T16:15:14.682Z,101591.88
2018-11-10T16:17:43.753Z,101598.36
2018-11-10T16:20:15.803Z,101598.34
2018-11-10T16:22:46.702Z,101595.55
2018-11-10T16:25:15.802Z,101596.30
2018-11-10T16:27:45.003Z,101592.73
2018-11-10T16:30:16.099Z,101596.83
2018-11-10T16:32:45.382Z,101597.75
2018-11-10T16:37:48.341Z,101598.19
2018-11-10T16:40:18.611Z,101606.66
2018-11-10T16:42:48.161Z,101605.73
2018-11-10T16:45:18.011Z,101604.58
2018-11-10T16:47:47.152Z,101604.50
2018-11-10T16:50:16.071Z,101599.55
2018-11-10T16:52:46.818Z,101604.28
2018-11-10T16:55:15.787Z,101607.88
2018-11-10T16:57:46.143Z,101603.69
2018-11-10T17:00:16.546Z,101602.84
2018-11-10T17:02:45.490Z,101599.86
2018-11-10T17:05:15.773Z,101600.47
2018-11-10T17:07:44.879Z,101605.58
2018-11-10T17:10:15.113Z,101607.88
2018-11-10T17:12:45.609Z,101605.48
2018-11-10T17:15:14.603Z,101606.32
2018-11-10T17:17:43.569Z,101611.29
2018-11-10T17:20:17.115Z,101605.87
2018-11-10T17:22:46.452Z,101604.80
2018-11-10T17:25:15.852Z,101607.36
2018-11-10T17:27:45.190Z,101612.93
2018-11-10T17:30:20.947Z,101608.47
2018-11-10T17:32:49.867Z,101604.77
2018-11-10T17:35:18.736Z,101608.29
2018-11-10T17:37:47.722Z,101608.02
2018-11-10T17:40:16.970Z,101611.21
2018-11-10T17:42:45.842Z,101614.27
2018-11-10T17:45:16.302Z,101621.62
2018-11-10T17:47:45.440Z,101621.31
2018-11-10T17:50:15.651Z,101619.94
2018-11-10T17:52:44.809Z,101617.56
2018-11-10T17:55:14.883Z,101613.88
2018-11-10T17:57:45.628Z,101614.19
2018-11-10T18:00:14.705Z,101612.41
2018-11-10T18:02:43.634Z,101611.50
2018-11-10T18:05:13.995Z,101608.98
2018-11-10T18:07:44.503Z,101609.30
2018-11-10T18:10:15.154Z,101609.98
2018-11-10T18:12:45.072Z,101616.04
2018-11-10T18:15:14.698Z,101621.41
2018-11-10T18:17:43.896Z,101618.94
2018-11-10T18:20:14.258Z,101617.64
2018-11-10T18:22:45.152Z,101619.87
2018-11-10T18:25:14.121Z,101637.76
2018-11-10T18:27:43.163Z,101631.35
2018-11-10T18:30:13.838Z,101631.42
2018-11-10T18:32:42.962Z,101632.27
2018-11-10T18:35:12.553Z,101636.17
2018-11-10T18:37:42.122Z,101639.33
2018-11-10T18:40:11.221Z,101633.41
2018-11-10T18:42:40.139Z,101635.03
2018-11-10T18:45:10.255Z,101643.23
2018-11-10T18:47:39.730Z,101643.91
2018-11-10T18:50:11.865Z,101635.09
2018-11-10T18:52:40.936Z,101640.07
2018-11-10T18:55:10.047Z,101648.09
2018-11-10T18:57:39.286Z,101645.05
2018-11-10T19:00:12.374Z,101649.68
2018-11-10T19:02:41.510Z,101652.03
2018-11-10T19:05:12.086Z,101650.36
2018-11-10T19:07:40.990Z,101651.37
2018-11-10T19:10:11.910Z,101646.50
2018-11-10T19:12:41.453Z,101649.63
2018-11-10T19:15:12.687Z,101654.47
2018-11-10T19:17:41.830Z,101642.50
2018-11-10T19:20:11.612Z,101654.44
2018-11-10T19:22:40.793Z,101659.58
2018-11-10T19:25:11.111Z,101655.73
2018-11-10T19:27:40.191Z,101660.48
2018-11-10T19:30:13.335Z,101666.12
2018-11-10T19:32:42.622Z,101648.67
2018-11-10T19:35:12.280Z,101670.36
2018-11-10T19:37:41.245Z,101665.16
2018-11-10T19:40:12.776Z,101670.20
2018-11-10T19:42:42.629Z,101663.41
2018-11-10T19:45:11.858Z,101669.69
2018-11-10T19:47:42.025Z,101669.23
2018-11-10T19:50:11.802Z,101670.75
2018-11-10T19:52:40.887Z,101671.95
2018-11-10T19:55:13.625Z,101675.73
2018-11-10T19:57:42.725Z,101675.56
2018-11-10T20:00:16.698Z,101678.05
2018-11-10T20:02:45.827Z,101677.21
2018-11-10T20:05:14.764Z,101680.27
2018-11-10T20:10:03.487Z,101691.96
2018-11-10T20:12:32.412Z,101688.05
2018-11-10T20:15:06.794Z,101684.24
2018-11-10T20:17:35.647Z,101687.98
2018-11-10T20:20:04.670Z,101689.25
2018-11-10T20:22:34.978Z,101690.31
2018-11-10T20:25:04.040Z,101691.33
2018-11-10T20:27:33.003Z,101685.43
2018-11-10T20:30:03.295Z,101683.06
2018-11-10T20:32:32.289Z,101686.41
2018-11-10T20:35:01.199Z,101679.16
2018-11-10T20:37:31.382Z,101681.69
2018-11-10T20:40:00.226Z,101681.21
2018-11-10T20:42:29.209Z,101681.37
2018-11-10T20:44:58.233Z,101679.67
2018-11-10T20:47:27.090Z,101689.20
2018-11-10T20:49:55.995Z,101689.89
2018-11-10T20:52:24.976Z,101687.92
2018-11-10T20:54:53.988Z,101693.29
2018-11-10T20:57:22.924Z,101693.23
2018-11-10T20:59:52.002Z,101693.48
2018-11-10T21:02:21.008Z,101690.78
2018-11-10T21:04:49.962Z,101690.05
2018-11-10T21:07:18.827Z,101683.80
2018-11-10T21:09:47.791Z,101685.13
2018-11-10T21:12:17.890Z,101689.41
2018-11-10T21:14:46.854Z,101694.25
2018-11-10T21:17:17.255Z,101692.61
2018-11-10T21:19:46.147Z,101689.55
2018-11-10T21:22:15.084Z,101688.84
2018-11-10T21:24:44.337Z,101688.79
2018-11-10T21:27:13.223Z,101694.63
2018-11-10T21:29:42.236Z,101690.69
2018-11-10T21:32:11.105Z,101688.02
2018-11-10T21:34:39.971Z,101687.05
2018-11-10T21:37:08.944Z,101686.64
2018-11-10T21:39:37.850Z,101691.95
2018-11-10T21:42:06.337Z,101691.61
2018-11-10T21:44:35.295Z,101692.85
2018-11-10T21:47:04.235Z,101694.28
2018-11-10T21:49:33.349Z,101694.01
2018-11-10T21:52:02.152Z,101689.67
2018-11-10T21:54:31.057Z,101697.38
2018-11-10T21:56:59.978Z,101695.13
2018-11-10T21:59:28.852Z,101699.64
2018-11-10T22:01:57.763Z,101700.65
2018-11-10T22:04:26.684Z,101703.59
2018-11-10T22:06:55.628Z,101699.94
2018-11-10T22:09:24.649Z,101701.25
2018-11-10T22:11:53.500Z,101702.33
2018-11-10T22:14:22.382Z,101707.78
2018-11-10T22:16:51.286Z,101700.32
2018-11-10T22:19:20.291Z,101702.16
2018-11-10T22:21:49.215Z,101695.32
2018-11-10T22:24:18.166Z,101694.73
2018-11-10T22:26:47.090Z,101700.55
2018-11-10T22:29:16.024Z,101696.30
2018-11-10T22:31:44.914Z,101699.70
2018-11-10T22:34:14.278Z,101708.53
2018-11-10T22:36:43.246Z,101703.03
2018-11-10T22:39:12.241Z,101702.13
2018-11-10T22:41:41.098Z,101701.70
2018-11-10T22:44:10.044Z,101702.30
2018-11-10T22:46:38.978Z,101699.86
2018-11-10T22:49:07.888Z,101702.58
2018-11-10T22:51:36.870Z,101699.52
2018-11-10T22:54:05.920Z,101698.71
2018-11-10T22:56:34.818Z,101704.20
2018-11-10T22:59:03.816Z,101705.14
2018-11-10T23:01:33.818Z,101711.22
2018-11-10T23:04:02.938Z,101706.78
2018-11-10T23:06:31.810Z,101703.84
2018-11-10T23:09:00.762Z,101713.17
2018-11-10T23:11:29.686Z,101708.27
2018-11-10T23:13:58.645Z,101713.66
2018-11-10T23:16:27.554Z,101713.42
2018-11-10T23:18:58.033Z,101711.05
2018-11-10T23:21:27.211Z,101714.48
2018-11-10T23:23:56.125Z,101714.87
2018-11-10T23:26:25.107Z,101716.39
2018-11-10T23:28:54.028Z,101720.11
2018-11-10T23:31:22.930Z,101727.21
2018-11-10T23:33:51.869Z,101722.88
2018-11-10T23:36:20.783Z,101722.06
2018-11-10T23:38:49.658Z,101724.91
2018-11-10T23:41:18.615Z,101726.58
2018-11-10T23:43:47.509Z,101732.80
2018-11-10T23:46:16.327Z,101733.66
2018-11-10T23:48:46.541Z,101729.34
2018-11-10T23:51:15.515Z,101736.56
2018-11-10T23:53:44.348Z,101734.27
2018-11-10T23:56:13.270Z,101730.56
2018-11-10T23:58:42.117Z,101728.09
